Time,TemperatureF,DewpointF,PressureIn,WindDirection,WindDirectionDegrees,WindSpeedMPH,WindSpeedGustMPH,Humidity,HourlyPrecipIn,Conditions,Clouds,dailyrainin,SoftwareType,DateUTC
2013-10-02 00:00:00,66.4,59.8,30.02,SW,225,0.0,0.0,79,0.00,,,0.00,WUHU216HW,2013-10-02 04:00:00,
2013-10-02 00:01:00,66.4,59.8,30.02,SW,225,0.0,0.0,79,0.00,,,0.00,WUHU216HW,2013-10-02 04:01:00,
2013-10-02 00:02:00,66.4,59.8,30.02,SW,225,0.0,0.0,79,0.00,,,0.00,WUHU216HW,2013-10-02 04:02:00,
2013-10-02 00:07:00,66.4,59.8,30.02,SW,225,0.0,0.0,79,0.00,,,0.00,WUHU216HW,2013-10-02 04:07:00,
2013-10-02 00:30:00,65.7,59.4,30.02,WNW,293,0.0,0.0,80,0.00,,,0.00,WUHU216HW,2013-10-02 04:30:00,
2013-10-02 00:35:00,65.7,59.4,30.02,WNW,293,0.0,0.0,80,0.00,,,0.00,WUHU216HW,2013-10-02 04:35:00,
2013-10-02 01:00:00,65.2,58.9,30.02,WNW,293,0.0,0.0,80,0.00,,,0.00,WUHU216HW,2013-10-02 05:00:00,
2013-10-02 01:05:00,65.2,58.9,30.02,WNW,293,0.0,0.0,80,0.00,,,0.00,WUHU216HW,2013-10-02 05:05:00,
2013-10-02 01:30:00,64.8,58.9,30.02,NW,315,0.0,0.0,81,0.00,,,0.00,WUHU216HW,2013-10-02 05:30:00,
2013-10-02 01:35:00,64.8,58.9,30.02,NW,315,0.0,0.0,81,0.00,,,0.00,WUHU216HW,2013-10-02 05:35:00,
2013-10-02 02:00:00,64.3,58.7,30.03,SSW,203,0.0,0.0,82,0.00,,,0.00,WUHU216HW,2013-10-02 06:00:00,
2013-10-02 02:05:00,64.3,58.7,30.03,SSW,203,0.0,0.0,82,0.00,,,0.00,WUHU216HW,2013-10-02 06:05:00,
2013-10-02 02:30:00,63.9,58.0,30.02,WNW,293,0.0,0.0,81,0.00,,,0.00,WUHU216HW,2013-10-02 06:30:00,
2013-10-02 02:35:00,63.9,58.0,30.02,WNW,293,0.0,0.0,81,0.00,,,0.00,WUHU216HW,2013-10-02 06:35:00,
2013-10-02 03:00:00,63.4,57.4,30.02,SSE,158,0.0,0.0,81,0.00,,,0.00,WUHU216HW,2013-10-02 07:00:00,
2013-10-02 03:05:00,63.4,57.4,30.02,SSE,158,0.0,0.0,81,0.00,,,0.00,WUHU216HW,2013-10-02 07:05:00,
2013-10-02 03:30:00,62.8,57.3,30.02,East,90,0.0,0.0,82,0.00,,,0.00,WUHU216HW,2013-10-02 07:30:00,
2013-10-02 03:35:00,62.8,57.3,30.02,East,90,0.0,0.0,82,0.00,,,0.00,WUHU216HW,2013-10-02 07:35:00,
2013-10-02 04:00:00,62.3,57.1,30.01,East,90,0.0,0.0,83,0.00,,,0.00,WUHU216HW,2013-10-02 08:00:00,
2013-10-02 04:05:00,62.3,57.1,30.01,East,90,0.0,0.0,83,0.00,,,0.00,WUHU216HW,2013-10-02 08:05:00,
2013-10-02 04:30:00,62.1,56.9,30.01,North,0,0.0,0.0,83,0.00,,,0.00,WUHU216HW,2013-10-02 08:30:00,
2013-10-02 04:35:00,62.1,56.9,30.01,North,0,0.0,0.0,83,0.00,,,0.00,WUHU216HW,2013-10-02 08:35:00,
2013-10-02 05:00:00,61.7,56.5,30.01,North,0,0.0,0.0,83,0.00,,,0.00,WUHU216HW,2013-10-02 09:00:00,
2013-10-02 05:05:00,61.7,56.5,30.01,North,0,0.0,0.0,83,0.00,,,0.00,WUHU216HW,2013-10-02 09:05:00,
2013-10-02 05:30:00,61.4,56.2,30.01,NNW,338,0.0,0.0,83,0.00,,,0.00,WUHU216HW,2013-10-02 09:30:00,
2013-10-02 05:35:00,61.4,56.2,30.01,NNW,338,0.0,0.0,83,0.00,,,0.00,WUHU216HW,2013-10-02 09:35:00,
2013-10-02 06:00:00,60.8,56.0,30.01,North,0,0.0,0.0,84,0.00,,,0.00,WUHU216HW,2013-10-02 10:00:00,
2013-10-02 06:05:00,60.8,56.0,30.01,North,0,0.0,0.0,84,0.00,,,0.00,WUHU216HW,2013-10-02 10:05:00,
2013-10-02 06:30:00,60.7,55.8,30.02,North,0,0.0,0.0,84,0.00,,,0.00,WUHU216HW,2013-10-02 10:30:00,
2013-10-02 06:35:00,60.7,55.8,30.02,North,0,0.0,0.0,84,0.00,,,0.00,WUHU216HW,2013-10-02 10:35:00,
2013-10-02 07:00:00,60.5,55.6,30.03,North,0,0.0,0.0,84,0.00,,,0.00,WUHU216HW,2013-10-02 11:00:00,
2013-10-02 07:05:00,60.5,55.6,30.03,North,0,0.0,0.0,84,0.00,,,0.00,WUHU216HW,2013-10-02 11:05:00,
2013-10-02 07:30:00,60.3,55.8,30.04,North,0,0.0,0.0,85,0.00,,,0.00,WUHU216HW,2013-10-02 11:30:00,
2013-10-02 07:35:00,60.3,55.8,30.04,North,0,0.0,0.0,85,0.00,,,0.00,WUHU216HW,2013-10-02 11:35:00,
2013-10-02 08:00:00,60.3,55.8,30.04,NNW,338,0.0,0.0,85,0.00,,,0.00,WUHU216HW,2013-10-02 12:00:00,
2013-10-02 08:05:00,60.3,55.8,30.04,NNW,338,0.0,0.0,85,0.00,,,0.00,WUHU216HW,2013-10-02 12:05:00,
2013-10-02 08:30:00,60.7,56.2,30.05,NNW,338,0.0,0.0,85,0.00,,,0.00,WUHU216HW,2013-10-02 12:30:00,
2013-10-02 08:35:00,60.7,56.2,30.05,NNW,338,0.0,0.0,85,0.00,,,0.00,WUHU216HW,2013-10-02 12:35:00,
2013-10-02 09:00:00,61.7,57.5,30.06,NNW,338,0.0,0.0,86,0.00,,,0.00,WUHU216HW,2013-10-02 13:00:00,
2013-10-02 09:05:00,61.7,57.5,30.06,NNW,338,0.0,0.0,86,0.00,,,0.00,WUHU216HW,2013-10-02 13:05:00,
2013-10-02 09:30:00,63.2,58.6,30.06,NW,315,0.0,0.0,85,0.00,,,0.00,WUHU216HW,2013-10-02 13:30:00,
2013-10-02 09:35:00,63.2,58.6,30.06,NW,315,0.0,0.0,85,0.00,,,0.00,WUHU216HW,2013-10-02 13:35:00,
2013-10-02 10:00:00,65.5,60.8,30.07,NW,315,0.2,0.2,85,0.00,,,0.00,WUHU216HW,2013-10-02 14:00:00,
2013-10-02 10:05:00,65.5,60.8,30.07,NW,315,0.2,0.2,85,0.00,,,0.00,WUHU216HW,2013-10-02 14:05:00,
2013-10-02 10:30:00,68.4,62.4,30.07,NW,315,0.0,0.0,81,0.00,,,0.00,WUHU216HW,2013-10-02 14:30:00,
2013-10-02 10:35:00,68.4,62.4,30.07,NW,315,0.0,0.0,81,0.00,,,0.00,WUHU216HW,2013-10-02 14:35:00,
2013-10-02 11:00:00,71.5,62.7,30.07,NE,45,0.9,0.9,74,0.00,,,0.00,WUHU216HW,2013-10-02 15:00:00,
2013-10-02 11:05:00,71.5,62.7,30.07,NE,45,0.9,0.9,74,0.00,,,0.00,WUHU216HW,2013-10-02 15:05:00,
2013-10-02 11:30:00,74.0,62.8,30.06,North,0,2.5,2.5,68,0.00,,,0.00,WUHU216HW,2013-10-02 15:30:00,
2013-10-02 11:33:00,74.0,62.8,30.06,North,0,2.5,2.5,68,0.00,,,0.00,WUHU216HW,2013-10-02 15:33:00,
2013-10-02 11:38:00,74.0,62.8,30.06,North,0,2.5,2.5,68,0.00,,,0.00,WUHU216HW,2013-10-02 15:38:00,
2013-10-02 12:00:00,75.2,62.6,30.06,North,0,1.8,1.8,65,0.00,,,0.00,WUHU216HW,2013-10-02 16:00:00,
2013-10-02 12:05:00,75.2,62.6,30.06,North,0,1.8,1.8,65,0.00,,,0.00,WUHU216HW,2013-10-02 16:05:00,
2013-10-02 12:30:00,76.1,62.7,30.05,South,180,0.4,0.4,63,0.00,,,0.00,WUHU216HW,2013-10-02 16:30:00,
2013-10-02 12:35:00,76.1,62.7,30.05,South,180,0.4,0.4,63,0.00,,,0.00,WUHU216HW,2013-10-02 16:35:00,
2013-10-02 13:00:00,78.1,62.6,30.04,ENE,68,0.7,0.7,59,0.00,,,0.00,WUHU216HW,2013-10-02 17:00:00,
2013-10-02 13:05:00,78.1,62.6,30.04,ENE,68,0.7,0.7,59,0.00,,,0.00,WUHU216HW,2013-10-02 17:05:00,
2013-10-02 13:30:00,79.9,63.8,30.03,SSE,158,0.4,0.4,58,0.00,,,0.00,WUHU216HW,2013-10-02 17:30:00,
2013-10-02 13:35:00,79.9,63.8,30.03,SSE,158,0.4,0.4,58,0.00,,,0.00,WUHU216HW,2013-10-02 17:35:00,
2013-10-02 14:00:00,82.4,63.0,30.01,NE,45,1.3,1.3,52,0.00,,,0.00,WUHU216HW,2013-10-02 18:00:00,
2013-10-02 14:05:00,82.4,63.0,30.01,NE,45,1.3,1.3,52,0.00,,,0.00,WUHU216HW,2013-10-02 18:05:00,
2013-10-02 14:30:00,83.2,64.2,30.00,SSW,203,0.2,0.2,53,0.00,,,0.00,WUHU216HW,2013-10-02 18:30:00,
2013-10-02 14:35:00,83.2,64.2,30.00,SSW,203,0.2,0.2,53,0.00,,,0.00,WUHU216HW,2013-10-02 18:35:00,
2013-10-02 15:00:00,83.5,63.6,30.00,SSW,203,1.1,1.1,51,0.00,,,0.00,WUHU216HW,2013-10-02 19:00:00,
2013-10-02 15:05:00,83.5,63.6,30.00,SSW,203,1.1,1.1,51,0.00,,,0.00,WUHU216HW,2013-10-02 19:05:00,
2013-10-02 15:30:00,83.3,62.8,29.99,NW,315,2.0,2.0,50,0.00,,,0.00,WUHU216HW,2013-10-02 19:30:00,
2013-10-02 15:35:00,83.3,62.8,29.99,NW,315,2.0,2.0,50,0.00,,,0.00,WUHU216HW,2013-10-02 19:35:00,
2013-10-02 16:00:00,83.2,62.6,29.98,NNW,338,0.4,0.4,50,0.00,,,0.00,WUHU216HW,2013-10-02 20:00:00,
2013-10-02 16:05:00,83.2,62.6,29.98,NNW,338,0.4,0.4,50,0.00,,,0.00,WUHU216HW,2013-10-02 20:05:00,
2013-10-02 16:30:00,83.3,62.2,29.98,WSW,248,1.1,1.1,49,0.00,,,0.00,WUHU216HW,2013-10-02 20:30:00,
2013-10-02 16:35:00,83.3,62.2,29.98,WSW,248,1.1,1.1,49,0.00,,,0.00,WUHU216HW,2013-10-02 20:35:00,
2013-10-02 17:00:00,82.6,62.1,29.98,WSW,248,0.7,0.7,50,0.00,,,0.00,WUHU216HW,2013-10-02 21:00:00,
2013-10-02 17:05:00,82.6,62.1,29.98,WSW,248,0.7,0.7,50,0.00,,,0.00,WUHU216HW,2013-10-02 21:05:00,
2013-10-02 17:30:00,81.7,61.8,29.98,WSW,248,2.7,2.7,51,0.00,,,0.00,WUHU216HW,2013-10-02 21:30:00,
2013-10-02 17:35:00,81.7,61.8,29.98,WSW,248,2.7,2.7,51,0.00,,,0.00,WUHU216HW,2013-10-02 21:35:00,
2013-10-02 18:00:00,80.6,61.8,29.99,SW,225,0.0,0.0,53,0.00,,,0.00,WUHU216HW,2013-10-02 22:00:00,
2013-10-02 18:05:00,80.6,61.8,29.99,SW,225,0.0,0.0,53,0.00,,,0.00,WUHU216HW,2013-10-02 22:05:00,
2013-10-02 18:30:00,79.2,61.7,29.99,SSW,203,0.0,0.0,55,0.00,,,0.00,WUHU216HW,2013-10-02 22:30:00,
2013-10-02 18:35:00,79.2,61.7,29.99,SSW,203,0.0,0.0,55,0.00,,,0.00,WUHU216HW,2013-10-02 22:35:00,
2013-10-02 19:00:00,77.8,61.8,30.00,WSW,248,0.0,0.0,58,0.00,,,0.00,WUHU216HW,2013-10-02 23:00:00,
2013-10-02 19:05:00,77.8,61.8,30.00,WSW,248,0.0,0.0,58,0.00,,,0.00,WUHU216HW,2013-10-02 23:05:00,
2013-10-02 19:30:00,76.3,62.4,30.00,NW,315,0.0,0.0,62,0.00,,,0.00,WUHU216HW,2013-10-02 23:30:00,
2013-10-02 19:35:00,76.3,62.4,30.00,NW,315,0.0,0.0,62,0.00,,,0.00,WUHU216HW,2013-10-02 23:35:00,
2013-10-02 20:00:00,74.7,62.1,30.01,WNW,293,0.0,0.0,65,0.00,,,0.00,WUHU216HW,2013-10-03 00:00:00,
2013-10-02 20:05:00,74.7,62.1,30.01,WNW,293,0.0,0.0,65,0.00,,,0.00,WUHU216HW,2013-10-03 00:05:00,
2013-10-02 20:30:00,73.4,61.8,30.02,WNW,293,0.0,0.0,67,0.00,,,0.00,WUHU216HW,2013-10-03 00:30:00,
2013-10-02 20:35:00,73.4,61.8,30.02,WNW,293,0.0,0.0,67,0.00,,,0.00,WUHU216HW,2013-10-03 00:35:00,
2013-10-02 21:00:00,72.4,61.7,30.02,West,270,0.0,0.0,69,0.00,,,0.00,WUHU216HW,2013-10-03 01:00:00,
2013-10-02 21:05:00,72.4,61.7,30.02,West,270,0.0,0.0,69,0.00,,,0.00,WUHU216HW,2013-10-03 01:05:00,
2013-10-02 21:30:00,71.5,61.2,30.03,West,270,0.0,0.0,70,0.00,,,0.00,WUHU216HW,2013-10-03 01:30:00,
2013-10-02 21:35:00,71.5,61.2,30.03,West,270,0.0,0.0,70,0.00,,,0.00,WUHU216HW,2013-10-03 01:35:00,
2013-10-02 22:00:00,70.7,60.8,30.03,West,270,0.0,0.0,71,0.00,,,0.00,WUHU216HW,2013-10-03 02:00:00,
2013-10-02 22:05:00,70.7,60.8,30.03,West,270,0.0,0.0,71,0.00,,,0.00,WUHU216HW,2013-10-03 02:05:00,
2013-10-02 22:30:00,69.8,60.8,30.03,West,270,0.0,0.0,73,0.00,,,0.00,WUHU216HW,2013-10-03 02:30:00,
2013-10-02 22:35:00,69.8,60.8,30.03,West,270,0.0,0.0,73,0.00,,,0.00,WUHU216HW,2013-10-03 02:35:00,
2013-10-02 23:00:00,69.1,60.5,30.04,West,270,0.0,0.0,74,0.00,,,0.00,WUHU216HW,2013-10-03 03:00:00,
2013-10-02 23:05:00,69.1,60.5,30.04,West,270,0.0,0.0,74,0.00,,,0.00,WUHU216HW,2013-10-03 03:05:00,
2013-10-02 23:30:00,68.4,60.2,30.04,West,270,0.0,0.0,75,0.00,,,0.00,WUHU216HW,2013-10-03 03:30:00,
2013-10-02 23:35:00,68.4,60.2,30.04,West,270,0.0,0.0,75,0.00,,,0.00,WUHU216HW,2013-10-03 03:35:00,